Tannersville, Virginia
Current Conditions -  °F | °C
As of 3:35 PM on Sunday 21 Dec 2014 (Local Time) from KJFZ Reporting Station
Clear Clear  
Wind Chill:   Ceiling: Unl
Heat Index:   Visibility: 10mi
Dew Point: -1°   Wind: 0mph
Humidity: 55%   Direction: NA
Pressure: 30.12"   Gusts: NA
Location:  36.98°N, 81.63°W
Report Text: KJFZ 212035Z AUTO 00000KT 10SM CLR 07/M01 A3012 RMK AO2 T00711014
Loading
Personal Weather Stations






























Interactive Weather Map New forecast layout! Learn more

10-Day Weather Forecast

Advertisements
Track Severe Weather on mobile